Terminal Aerodrome Forecast
Issued by NWS Cleveland, OH

Home | Current Version | Previous Version | Text Only | Print | Product List | Glossary Off
Versions: 1 2 3 4 5 6 7 8 9 10 11 12 13 14 15 16 17 18 19 20 21 22 23

000
FTUS41 KCLE 271456 AAA
TAFCAK
TAF AMD
KCAK 271456Z 2715/2812 17012KT 4SM -SHRA BR BKN005 OVC012
      TEMPO 2715/2718 2SM -SHRA BR OVC005
     FM271800 19015G25KT 5SM BR VCTS SCT005 OVC015CB
      TEMPO 2718/2720 2SM -TSRA BR OVC005CB
     FM272200 24012KT P6SM SCT005 OVC012
     FM280300 31012G20KT 3SM -SHRA BR OVC003=

USA.gov is the U.S. government's official web portal to all federal, state and local government web resources and services.